Time,TemperatureF,DewpointF,PressureIn,WindDirection,WindDirectionDegrees,WindSpeedMPH,WindSpeedGustMPH,Humidity,HourlyPrecipIn,Conditions,Clouds,dailyrainin,SoftwareType,DateUTC
2013-07-28 07:30:00,71.6,65.5,29.38,East,95,0.0,0.0,81,0.00,,---,0.00,VWS V13.01,2013-07-28 12:30:00,
2013-07-28 07:35:00,71.8,65.6,29.38,East,95,0.0,0.0,81,0.00,,---,0.00,VWS V13.01,2013-07-28 12:35:00,
2013-07-28 07:40:00,72.0,65.8,29.38,East,95,0.0,0.0,81,0.00,,---,0.00,VWS V13.01,2013-07-28 12:40:00,
2013-07-28 07:45:00,72.3,66.5,29.38,East,95,2.2,2.7,82,0.00,,---,0.00,VWS V13.01,2013-07-28 12:45:00,
2013-07-28 07:50:00,72.7,66.9,29.38,ESE,122,0.0,4.0,82,0.00,,---,0.00,VWS V13.01,2013-07-28 12:50:00,
2013-07-28 07:55:00,73.2,67.4,29.38,ESE,123,0.0,0.0,82,0.00,,---,0.00,VWS V13.01,2013-07-28 12:55:00,
2013-07-28 08:00:00,73.6,67.4,29.41,ESE,122,0.0,0.0,81,0.00,,---,0.00,VWS V13.01,2013-07-28 13:00:00,
2013-07-28 08:05:00,73.9,67.8,29.41,ESE,122,0.0,0.0,81,0.00,,---,0.00,VWS V13.01,2013-07-28 13:05:00,
2013-07-28 08:10:00,74.1,67.6,29.41,ESE,123,0.0,0.0,80,0.00,,---,0.00,VWS V13.01,2013-07-28 13:10:00,
2013-07-28 08:15:00,74.3,67.7,29.41,ESE,122,0.0,2.2,80,0.00,,---,0.00,VWS V13.01,2013-07-28 13:15:00,
2013-07-28 08:20:00,74.7,67.7,29.41,SE,130,3.1,3.1,79,0.00,,---,0.00,VWS V13.01,2013-07-28 13:20:00,
2013-07-28 08:25:00,74.8,67.9,29.41,SE,138,0.0,2.2,79,0.00,,---,0.00,VWS V13.01,2013-07-28 13:25:00,
2013-07-28 08:30:00,75.2,68.2,29.41,SE,135,2.7,3.1,79,0.00,,---,0.00,VWS V13.01,2013-07-28 13:30:00,
2013-07-28 08:35:00,75.6,67.8,29.41,SE,135,0.0,3.6,77,0.00,,---,0.00,VWS V13.01,2013-07-28 13:35:00,
2013-07-28 08:40:00,75.9,68.2,29.41,ESE,120,4.0,5.8,77,0.00,,---,0.00,VWS V13.01,2013-07-28 13:40:00,
2013-07-28 08:45:00,76.3,68.2,29.41,SSE,156,3.6,4.9,76,0.00,,---,0.00,VWS V13.01,2013-07-28 13:45:00,
2013-07-28 08:50:00,76.6,68.5,29.41,East,100,5.8,5.8,76,0.00,,---,0.00,VWS V13.01,2013-07-28 13:50:00,
2013-07-28 08:55:00,77.0,68.1,29.41,ESE,108,3.6,7.6,74,0.00,,---,0.00,VWS V13.01,2013-07-28 13:55:00,
2013-07-28 09:00:00,77.0,67.7,29.41,SE,135,3.6,3.6,73,0.00,,---,0.00,VWS V13.01,2013-07-28 14:00:00,
2013-07-28 09:05:00,76.8,67.1,29.41,SE,136,2.2,3.6,72,0.00,,---,0.00,VWS V13.01,2013-07-28 14:05:00,
2013-07-28 09:10:00,76.8,67.5,29.41,ESE,103,2.7,5.4,73,0.00,,---,0.00,VWS V13.01,2013-07-28 14:10:00,
2013-07-28 09:15:00,77.4,68.0,29.41,ESE,118,5.4,5.4,73,0.00,,---,0.00,VWS V13.01,2013-07-28 14:15:00,
2013-07-28 09:20:00,78.1,68.3,29.41,ESE,122,6.3,6.3,72,0.00,,---,0.00,VWS V13.01,2013-07-28 14:20:00,
2013-07-28 09:25:00,78.8,67.8,29.41,East,99,4.0,4.5,69,0.00,,---,0.00,VWS V13.01,2013-07-28 14:25:00,
2013-07-28 09:30:00,79.5,67.6,29.41,SE,133,9.6,9.6,67,0.00,,---,0.00,VWS V13.01,2013-07-28 14:30:00,
2013-07-28 09:35:00,80.1,67.2,29.41,South,184,4.0,4.0,65,0.00,,---,0.00,VWS V13.01,2013-07-28 14:35:00,
2013-07-28 09:40:00,80.8,67.9,29.41,ESE,103,3.1,4.0,65,0.00,,---,0.00,VWS V13.01,2013-07-28 14:40:00,
2013-07-28 09:45:00,81.5,67.7,29.41,SE,130,4.0,4.0,63,0.00,,---,0.00,VWS V13.01,2013-07-28 14:45:00,
2013-07-28 09:50:00,82.6,68.2,29.41,SSE,147,4.0,4.9,62,0.00,,---,0.00,VWS V13.01,2013-07-28 14:50:00,
2013-07-28 09:55:00,83.5,67.7,29.41,SSE,160,3.6,4.9,59,0.00,,---,0.00,VWS V13.01,2013-07-28 14:55:00,
2013-07-28 10:00:00,84.0,68.2,29.41,SSE,151,5.4,5.4,59,0.00,,---,0.00,VWS V13.01,2013-07-28 15:00:00,
2013-07-28 10:05:00,84.6,67.2,29.41,ENE,60,5.8,5.8,56,0.00,,---,0.00,VWS V13.01,2013-07-28 15:05:00,
2013-07-28 10:10:00,84.9,67.0,29.41,SE,143,4.0,5.8,55,0.00,,---,0.00,VWS V13.01,2013-07-28 15:10:00,
2013-07-28 10:15:00,84.7,65.7,29.41,ESE,110,4.9,4.9,53,0.00,,---,0.00,VWS V13.01,2013-07-28 15:15:00,
2013-07-28 10:20:00,84.9,67.0,29.41,ESE,114,3.6,5.8,55,0.00,,---,0.00,VWS V13.01,2013-07-28 15:20:00,
2013-07-28 10:25:00,85.1,66.1,29.41,SE,124,3.1,4.9,53,0.00,,---,0.00,VWS V13.01,2013-07-28 15:25:00,
2013-07-28 10:30:00,85.3,66.2,29.41,SE,131,4.0,4.0,53,0.00,,---,0.00,VWS V13.01,2013-07-28 15:30:00,
2013-07-28 10:35:00,85.5,66.9,29.41,ESE,120,0.0,5.4,54,0.00,,---,0.00,VWS V13.01,2013-07-28 15:35:00,
2013-07-28 10:40:00,86.4,67.8,29.41,ESE,113,4.9,6.3,54,0.00,,---,0.00,VWS V13.01,2013-07-28 15:40:00,
2013-07-28 10:45:00,87.1,66.2,29.41,East,81,6.3,6.3,50,0.00,,---,0.00,VWS V13.01,2013-07-28 15:45:00,
2013-07-28 10:50:00,87.3,65.8,29.41,ESE,102,3.6,8.3,49,0.00,,---,0.00,VWS V13.01,2013-07-28 15:50:00,
2013-07-28 10:55:00,87.8,65.7,29.41,SE,146,8.1,8.1,48,0.00,,---,0.00,VWS V13.01,2013-07-28 15:55:00,
2013-07-28 11:00:00,88.2,64.2,29.41,NNE,20,0.0,5.8,45,0.00,,---,0.00,VWS V13.01,2013-07-28 16:00:00,
2013-07-28 11:05:00,88.0,66.4,29.41,NE,56,3.1,3.6,49,0.00,,---,0.00,VWS V13.01,2013-07-28 16:05:00,
2013-07-28 11:10:00,88.2,67.8,29.41,East,90,3.1,7.6,51,0.00,,---,0.00,VWS V13.01,2013-07-28 16:10:00,
2013-07-28 11:15:00,88.3,66.2,29.41,SSE,161,3.6,8.1,48,0.00,,---,0.00,VWS V13.01,2013-07-28 16:15:00,
2013-07-28 11:20:00,88.3,64.3,29.41,SSW,195,3.6,3.6,45,0.00,,---,0.00,VWS V13.01,2013-07-28 16:20:00,
2013-07-28 11:25:00,88.5,65.7,29.41,ESE,113,3.6,5.8,47,0.00,,---,0.00,VWS V13.01,2013-07-28 16:25:00,
2013-07-28 11:30:00,88.5,65.7,29.41,NE,42,5.4,5.4,47,0.00,,---,0.00,VWS V13.01,2013-07-28 16:30:00,
2013-07-28 11:35:00,88.7,64.7,29.41,SE,132,5.8,6.3,45,0.00,,---,0.00,VWS V13.01,2013-07-28 16:35:00,
2013-07-28 11:40:00,88.7,63.3,29.41,NE,40,4.9,6.3,43,0.00,,---,0.00,VWS V13.01,2013-07-28 16:40:00,
2013-07-28 11:45:00,88.7,65.3,29.38,SE,142,6.3,6.3,46,0.00,,---,0.00,VWS V13.01,2013-07-28 16:45:00,
2013-07-28 11:50:00,89.1,65.6,29.38,East,85,2.2,6.3,46,0.00,,---,0.00,VWS V13.01,2013-07-28 16:50:00,
2013-07-28 11:55:00,89.2,63.2,29.38,East,82,0.0,2.7,42,0.00,,---,0.00,VWS V13.01,2013-07-28 16:55:00,
2013-07-28 12:00:00,89.2,64.5,29.38,ESE,103,3.6,8.3,44,0.00,,---,0.00,VWS V13.01,2013-07-28 17:00:00,
2013-07-28 12:05:00,89.4,64.0,29.38,SSE,152,4.0,4.0,43,0.00,,---,0.00,VWS V13.01,2013-07-28 17:05:00,
2013-07-28 12:10:00,89.4,64.0,29.38,SE,138,0.0,0.0,43,0.00,,---,0.00,VWS V13.01,2013-07-28 17:10:00,
2013-07-28 12:15:00,89.4,64.0,29.38,North,357,3.6,3.6,43,0.00,,---,0.00,VWS V13.01,2013-07-28 17:15:00,
2013-07-28 12:20:00,89.4,64.0,29.38,NNE,32,2.7,2.7,43,0.00,,---,0.00,VWS V13.01,2013-07-28 17:20:00,
2013-07-28 12:25:00,89.4,64.0,29.38,ESE,109,4.0,4.0,43,0.00,,---,0.00,VWS V13.01,2013-07-28 17:25:00,
2013-07-28 12:30:00,89.4,64.0,29.38,NNE,28,3.1,3.1,43,0.00,,---,0.00,VWS V13.01,2013-07-28 17:30:00,
2013-07-28 12:35:00,91.2,64.2,29.38,East,99,2.7,3.1,41,0.00,,---,0.00,VWS V13.01,2013-07-28 17:35:00,
2013-07-28 12:40:00,91.6,64.6,29.38,ESE,117,3.6,7.6,41,0.00,,---,0.00,VWS V13.01,2013-07-28 17:40:00,
2013-07-28 12:45:00,91.6,63.9,29.38,NE,34,3.1,3.1,40,0.00,,---,0.00,VWS V13.01,2013-07-28 17:45:00,
2013-07-28 12:50:00,91.4,64.4,29.38,SSW,213,0.0,2.2,41,0.00,,---,0.00,VWS V13.01,2013-07-28 17:50:00,
2013-07-28 12:55:00,91.6,62.4,29.38,SE,133,6.3,6.3,38,0.00,,---,0.00,VWS V13.01,2013-07-28 17:55:00,
2013-07-28 13:00:00,91.2,63.5,29.38,SE,128,6.3,6.3,40,0.00,,---,0.00,VWS V13.01,2013-07-28 18:00:00,
2013-07-28 13:05:00,90.7,62.3,29.38,ESE,122,3.1,3.1,39,0.00,,---,0.00,VWS V13.01,2013-07-28 18:05:00,
2013-07-28 13:10:00,91.0,64.8,29.38,SSW,198,4.0,5.8,42,0.00,,---,0.00,VWS V13.01,2013-07-28 18:10:00,
2013-07-28 13:15:00,90.9,62.5,29.38,East,95,6.3,6.3,39,0.00,,---,0.00,VWS V13.01,2013-07-28 18:15:00,
2013-07-28 13:20:00,90.7,64.5,29.38,SSE,166,4.0,6.3,42,0.00,,---,0.00,VWS V13.01,2013-07-28 18:20:00,
2013-07-28 13:25:00,90.9,63.2,29.38,ENE,78,4.0,4.5,40,0.00,,---,0.00,VWS V13.01,2013-07-28 18:25:00,
2013-07-28 13:30:00,90.9,63.9,29.38,South,173,2.2,2.2,41,0.00,,---,0.00,VWS V13.01,2013-07-28 18:30:00,
2013-07-28 13:35:00,91.2,62.1,29.38,SSE,165,0.0,4.0,38,0.00,,---,0.00,VWS V13.01,2013-07-28 18:35:00,
2013-07-28 13:40:00,91.2,63.5,29.38,South,177,5.8,5.8,40,0.00,,---,0.00,VWS V13.01,2013-07-28 18:40:00,
2013-07-28 13:45:00,91.4,63.0,29.38,SE,130,5.4,5.4,39,0.00,,---,0.00,VWS V13.01,2013-07-28 18:45:00,
2013-07-28 13:50:00,91.6,63.9,29.38,ESE,108,2.7,2.7,40,0.00,,---,0.00,VWS V13.01,2013-07-28 18:50:00,
2013-07-28 13:55:00,91.8,64.0,29.38,SSE,168,3.1,4.9,40,0.00,,---,0.00,VWS V13.01,2013-07-28 18:55:00,
2013-07-28 14:00:00,91.6,62.4,29.35,SSE,159,5.8,5.8,38,0.00,,---,0.00,VWS V13.01,2013-07-28 19:00:00,
2013-07-28 14:05:00,91.6,62.4,29.35,SE,144,0.0,3.1,38,0.00,,---,0.00,VWS V13.01,2013-07-28 19:05:00,
2013-07-28 14:10:00,91.8,63.3,29.35,South,182,3.6,3.6,39,0.00,,---,0.00,VWS V13.01,2013-07-28 19:10:00,
2013-07-28 14:15:00,91.8,62.6,29.35,NE,50,0.0,4.0,38,0.00,,---,0.00,VWS V13.01,2013-07-28 19:15:00,
2013-07-28 14:20:00,91.6,61.7,29.35,SE,129,2.7,2.7,37,0.00,,---,0.00,VWS V13.01,2013-07-28 19:20:00,
2013-07-28 14:25:00,91.6,63.1,29.35,East,90,4.0,4.0,39,0.00,,---,0.00,VWS V13.01,2013-07-28 19:25:00,
2013-07-28 14:30:00,91.6,63.9,29.35,ENE,69,4.9,8.1,40,0.00,,---,0.00,VWS V13.01,2013-07-28 19:30:00,
2013-07-28 14:35:00,91.4,63.0,29.35,East,84,4.0,4.9,39,0.00,,---,0.00,VWS V13.01,2013-07-28 19:35:00,
2013-07-28 14:40:00,90.9,62.5,29.35,SE,142,3.1,5.8,39,0.00,,---,0.00,VWS V13.01,2013-07-28 19:40:00,
2013-07-28 14:45:00,90.5,62.2,29.35,SE,124,4.0,4.0,39,0.00,,---,0.00,VWS V13.01,2013-07-28 19:45:00,
2013-07-28 14:50:00,90.7,63.1,29.35,NE,52,3.6,3.6,40,0.00,,---,0.00,VWS V13.01,2013-07-28 19:50:00,
2013-07-28 14:55:00,91.6,63.1,29.35,NE,51,2.2,4.5,39,0.00,,---,0.00,VWS V13.01,2013-07-28 19:55:00,
2013-07-28 15:00:00,91.9,63.5,29.35,SE,141,2.7,2.7,39,0.00,,---,0.00,VWS V13.01,2013-07-28 20:00:00,
2013-07-28 15:05:00,92.5,63.2,29.35,SSE,152,6.3,7.6,38,0.00,,---,0.00,VWS V13.01,2013-07-28 20:05:00,
2013-07-28 15:10:00,92.8,65.7,29.35,NE,50,2.7,2.7,41,0.00,,---,0.00,VWS V13.01,2013-07-28 20:10:00,
2013-07-28 15:15:00,92.7,64.1,29.35,SE,130,0.0,0.0,39,0.00,,---,0.00,VWS V13.01,2013-07-28 20:15:00,
2013-07-28 15:20:00,92.5,63.2,29.35,SSE,158,0.0,3.1,38,0.00,,---,0.00,VWS V13.01,2013-07-28 20:20:00,
2013-07-28 15:25:00,91.9,63.5,29.35,SSE,155,5.4,5.4,39,0.00,,---,0.00,VWS V13.01,2013-07-28 20:25:00,
2013-07-28 15:30:00,91.4,63.0,29.35,ESE,108,0.0,0.0,39,0.00,,---,0.00,VWS V13.01,2013-07-28 20:30:00,
2013-07-28 15:35:00,91.4,64.4,29.35,SW,224,0.0,0.0,41,0.00,,---,0.00,VWS V13.01,2013-07-28 20:35:00,
2013-07-28 15:40:00,91.2,63.5,29.35,East,100,5.4,5.4,40,0.00,,---,0.00,VWS V13.01,2013-07-28 20:40:00,
2013-07-28 15:45:00,91.4,63.0,29.35,South,169,3.1,3.1,39,0.00,,---,0.00,VWS V13.01,2013-07-28 20:45:00,
2013-07-28 15:50:00,91.4,63.0,29.35,South,178,7.6,7.6,39,0.00,,---,0.00,VWS V13.01,2013-07-28 20:50:00,
2013-07-28 15:55:00,92.1,63.6,29.35,SE,140,3.6,3.6,39,0.00,,---,0.00,VWS V13.01,2013-07-28 20:55:00,
2013-07-28 16:00:00,92.1,63.6,29.35,ESE,107,3.6,3.6,39,0.00,,---,0.00,VWS V13.01,2013-07-28 21:00:00,
2013-07-28 16:05:00,92.1,63.6,29.35,SE,138,4.0,4.0,39,0.00,,---,0.00,VWS V13.01,2013-07-28 21:05:00,
2013-07-28 16:10:00,92.1,63.6,29.35,SSW,202,2.2,2.2,39,0.00,,---,0.00,VWS V13.01,2013-07-28 21:10:00,
2013-07-28 16:15:00,92.7,63.4,29.35,SSW,202,2.2,2.2,38,0.00,,---,0.00,VWS V13.01,2013-07-28 21:15:00,
2013-07-28 16:20:00,92.7,63.4,29.35,SE,124,3.6,3.6,38,0.00,,---,0.00,VWS V13.01,2013-07-28 21:20:00,
2013-07-28 16:25:00,92.7,63.4,29.35,SSW,208,3.1,3.1,38,0.00,,---,0.00,VWS V13.01,2013-07-28 21:25:00,
2013-07-28 16:30:00,92.7,63.4,29.35,South,184,0.0,0.0,38,0.00,,---,0.00,VWS V13.01,2013-07-28 21:30:00,
2013-07-28 16:35:00,92.7,63.4,29.35,ESE,108,4.9,4.9,38,0.00,,---,0.00,VWS V13.01,2013-07-28 21:35:00,
2013-07-28 16:40:00,92.7,61.0,29.35,ENE,78,0.0,0.0,35,0.00,,---,0.00,VWS V13.01,2013-07-28 21:40:00,
2013-07-28 16:45:00,92.7,61.0,29.35,East,101,0.0,0.0,35,0.00,,---,0.00,VWS V13.01,2013-07-28 21:45:00,
2013-07-28 16:50:00,92.7,61.0,29.35,East,101,0.0,0.0,35,0.00,,---,0.00,VWS V13.01,2013-07-28 21:50:00,
2013-07-28 16:55:00,92.7,61.0,29.35,East,101,0.0,0.0,35,0.00,,---,0.00,VWS V13.01,2013-07-28 21:55:00,
2013-07-28 17:00:00,92.7,61.0,29.35,SE,126,0.0,0.0,35,0.00,,---,0.00,VWS V13.01,2013-07-28 22:00:00,
2013-07-28 17:05:00,91.8,61.8,29.35,SE,126,0.0,0.0,37,0.00,,---,0.00,VWS V13.01,2013-07-28 22:05:00,
2013-07-28 17:10:00,91.8,61.8,29.35,SSE,152,5.4,5.4,37,0.00,,---,0.00,VWS V13.01,2013-07-28 22:10:00,
2013-07-28 17:15:00,91.8,61.8,29.35,ENE,71,3.6,3.6,37,0.00,,---,0.00,VWS V13.01,2013-07-28 22:15:00,
2013-07-28 17:20:00,91.8,61.8,29.35,SSE,168,4.0,4.0,37,0.00,,---,0.00,VWS V13.01,2013-07-28 22:20:00,
2013-07-28 17:25:00,91.8,61.8,29.35,SSE,168,4.0,4.0,37,0.00,,---,0.00,VWS V13.01,2013-07-28 22:25:00,
2013-07-28 17:30:00,92.1,61.3,29.35,ESE,105,5.8,5.8,36,0.00,,---,0.00,VWS V13.01,2013-07-28 22:30:00,
2013-07-28 17:35:00,92.1,61.3,29.35,South,184,3.1,3.1,36,0.00,,---,0.00,VWS V13.01,2013-07-28 22:35:00,
2013-07-28 17:40:00,92.1,61.3,29.35,South,184,3.1,3.1,36,0.00,,---,0.00,VWS V13.01,2013-07-28 22:40:00,
2013-07-28 17:45:00,92.1,61.3,29.35,East,85,8.3,8.3,36,0.00,,---,0.00,VWS V13.01,2013-07-28 22:45:00,
2013-07-28 17:50:00,91.8,60.2,29.35,SSW,192,5.8,5.8,35,0.00,,---,0.00,VWS V13.01,2013-07-28 22:50:00,
2013-07-28 17:55:00,91.8,60.2,29.35,ESE,122,5.8,5.8,35,0.00,,---,0.00,VWS V13.01,2013-07-28 22:55:00,
2013-07-28 18:00:00,91.2,60.6,29.29,ESE,122,5.8,5.8,36,0.00,,---,0.00,VWS V13.01,2013-07-28 23:00:00,
2013-07-28 18:05:00,91.2,60.6,29.29,SSE,160,3.1,3.1,36,0.00,,---,0.00,VWS V13.01,2013-07-28 23:05:00,
2013-07-28 18:10:00,91.2,62.1,29.29,SSE,160,3.1,3.1,38,0.00,,---,0.00,VWS V13.01,2013-07-28 23:10:00,
2013-07-28 18:15:00,91.0,61.9,29.29,SSE,160,3.1,3.1,38,0.00,,---,0.00,VWS V13.01,2013-07-28 23:15:00,
2013-07-28 18:20:00,91.0,61.9,29.29,SSE,160,3.1,3.1,38,0.00,,---,0.00,VWS V13.01,2013-07-28 23:20:00,
2013-07-28 18:25:00,91.0,61.9,29.29,SSE,160,3.1,3.1,38,0.00,,---,0.00,VWS V13.01,2013-07-28 23:25:00,
2013-07-28 18:30:00,91.0,61.9,29.29,SSE,160,3.1,3.1,38,0.00,,---,0.00,VWS V13.01,2013-07-28 23:30:00,
2013-07-28 18:35:00,91.0,61.9,29.29,SSE,160,3.1,3.1,38,0.00,,---,0.00,VWS V13.01,2013-07-28 23:35:00,
2013-07-28 18:40:00,91.0,61.9,29.29,SSE,160,3.1,3.1,38,0.00,,---,0.00,VWS V13.01,2013-07-28 23:40:00,
2013-07-28 18:45:00,90.9,61.8,29.29,SSE,160,3.1,3.1,38,0.00,,---,0.00,VWS V13.01,2013-07-28 23:45:00,
2013-07-28 18:50:00,90.9,61.8,29.29,SSE,160,3.1,3.1,38,0.00,,---,0.00,VWS V13.01,2013-07-28 23:50:00,
2013-07-28 18:55:00,90.9,61.8,29.29,SSE,160,3.1,3.1,38,0.00,,---,0.00,VWS V13.01,2013-07-28 23:55:00,
2013-07-28 19:00:00,90.9,61.8,29.29,SSE,160,3.1,3.1,38,0.00,,---,0.00,VWS V13.01,2013-07-29 00:00:00,
2013-07-28 19:05:00,90.3,61.3,29.29,SSE,160,3.1,3.1,38,0.00,,---,0.00,VWS V13.01,2013-07-29 00:05:00,
2013-07-28 19:10:00,90.1,61.9,29.29,SSE,160,3.1,3.1,39,0.00,,---,0.00,VWS V13.01,2013-07-29 00:10:00,
2013-07-28 19:15:00,90.1,61.9,29.29,SSE,160,3.1,3.1,39,0.00,,---,0.00,VWS V13.01,2013-07-29 00:15:00,
2013-07-28 19:20:00,89.8,61.5,29.29,SSE,160,3.1,3.1,39,0.00,,---,0.00,VWS V13.01,2013-07-29 00:20:00,
2013-07-28 19:25:00,89.8,61.5,29.29,SSE,160,3.1,3.1,39,0.00,,---,0.00,VWS V13.01,2013-07-29 00:25:00,
2013-07-28 19:30:00,89.6,61.4,29.29,SSE,160,3.1,3.1,39,0.00,,---,0.00,VWS V13.01,2013-07-29 00:30:00,
2013-07-28 19:35:00,89.6,61.4,29.29,SSE,160,3.1,3.1,39,0.00,,---,0.00,VWS V13.01,2013-07-29 00:35:00,
2013-07-28 19:40:00,89.4,61.9,29.29,SSE,160,3.1,3.1,40,0.00,,---,0.00,VWS V13.01,2013-07-29 00:40:00,
2013-07-28 19:45:00,89.2,62.5,29.29,SSE,160,3.1,3.1,41,0.00,,---,0.00,VWS V13.01,2013-07-29 00:45:00,
2013-07-28 19:50:00,89.2,62.5,29.29,SSE,160,3.1,3.1,41,0.00,,---,0.00,VWS V13.01,2013-07-29 00:50:00,
2013-07-28 19:55:00,88.9,64.2,29.29,SSE,160,3.1,3.1,44,0.00,,---,0.00,VWS V13.01,2013-07-29 00:55:00,
2013-07-28 20:00:00,88.7,64.0,29.32,SSE,160,3.1,3.1,44,0.00,,---,0.00,VWS V13.01,2013-07-29 01:00:00,
2013-07-28 20:05:00,88.5,64.5,29.32,SSE,160,3.1,3.1,45,0.00,,---,0.00,VWS V13.01,2013-07-29 01:05:00,
2013-07-28 20:10:00,88.2,65.4,29.32,SSE,160,3.1,3.1,47,0.00,,---,0.00,VWS V13.01,2013-07-29 01:10:00,
2013-07-28 20:15:00,88.2,65.4,29.32,SSE,160,3.1,3.1,47,0.00,,---,0.00,VWS V13.01,2013-07-29 01:15:00,